createdAt,value
2024-03-05T00:00:18.189Z,9.46
2024-03-05T00:02:48.818Z,9.44
2024-03-05T00:05:20.051Z,9.42
2024-03-05T00:07:51.088Z,9.42
2024-03-05T00:10:22.800Z,9.40
2024-03-05T00:12:56.023Z,9.40
2024-03-05T00:15:28.428Z,9.39
2024-03-05T00:17:59.378Z,9.37
2024-03-05T00:20:30.065Z,9.38
2024-03-05T00:23:00.666Z,9.37
2024-03-05T00:25:31.589Z,9.36
2024-03-05T00:28:06.465Z,9.35
2024-03-05T00:30:37.058Z,9.36
2024-03-05T00:33:08.090Z,9.35
2024-03-05T00:35:38.760Z,9.33
2024-03-05T00:38:12.394Z,9.33
2024-03-05T00:40:49.032Z,9.33
2024-03-05T00:43:22.311Z,9.33
2024-03-05T00:45:53.725Z,9.32
2024-03-05T00:48:25.062Z,9.32
2024-03-05T00:50:55.792Z,9.31
2024-03-05T00:53:26.321Z,9.31
2024-03-05T00:55:57.133Z,9.31
2024-03-05T00:58:30.460Z,9.29
2024-03-05T01:01:02.881Z,9.28
2024-03-05T01:03:33.608Z,9.28
2024-03-05T01:06:05.183Z,9.27
2024-03-05T01:08:35.724Z,9.26
2024-03-05T01:11:06.491Z,9.26
2024-03-05T01:13:40.034Z,9.24
2024-03-05T01:16:11.003Z,9.23
2024-03-05T01:18:42.646Z,9.22
2024-03-05T01:21:13.287Z,9.20
2024-03-05T01:23:45.348Z,9.18
2024-03-05T01:26:15.909Z,9.16
2024-03-05T01:28:49.189Z,9.14
2024-03-05T01:31:20.139Z,9.12
2024-03-05T01:33:50.672Z,9.10
2024-03-05T01:36:21.409Z,9.09
2024-03-05T01:38:53.311Z,9.06
2024-03-05T01:41:24.421Z,9.05
2024-03-05T01:43:57.766Z,9.03
2024-03-05T01:46:30.062Z,9.02
2024-03-05T01:49:01.526Z,9.00
2024-03-05T01:51:32.353Z,9.00
2024-03-05T01:54:03.098Z,8.98
2024-03-05T01:56:33.616Z,8.96
2024-03-05T01:59:07.067Z,8.95
2024-03-05T02:01:38.817Z,8.94
2024-03-05T02:04:09.571Z,8.93
2024-03-05T02:06:40.827Z,8.90
2024-03-05T02:09:12.981Z,8.90
2024-03-05T02:11:52.820Z,8.90
2024-03-05T02:14:31.174Z,8.89
2024-03-05T02:17:04.697Z,8.89
2024-03-05T02:19:55.715Z,8.89
2024-03-05T02:22:29.052Z,8.89
2024-03-05T02:24:59.867Z,8.88
2024-03-05T02:27:34.896Z,8.90
2024-03-05T02:30:12.148Z,8.88
2024-03-05T02:32:44.761Z,8.88
2024-03-05T02:35:15.539Z,8.88
2024-03-05T02:37:49.397Z,8.86
2024-03-05T02:40:20.417Z,8.85
2024-03-05T02:42:51.120Z,8.85
2024-03-05T02:45:21.864Z,8.83
2024-03-05T02:47:52.564Z,8.81
2024-03-05T02:50:23.450Z,8.79
2024-03-05T02:52:58.651Z,8.77
2024-03-05T02:55:29.478Z,8.75
2024-03-05T02:57:59.946Z,8.74
2024-03-05T03:00:30.638Z,8.73
2024-03-05T03:03:01.277Z,8.72
2024-03-05T03:05:32.662Z,8.71
2024-03-05T03:08:05.977Z,8.69
2024-03-05T03:10:36.698Z,8.67
2024-03-05T03:13:08.021Z,8.68
2024-03-05T03:15:38.572Z,8.66
2024-03-05T03:18:09.683Z,8.66
2024-03-05T03:20:40.333Z,8.66
2024-03-05T03:23:13.633Z,8.66
2024-03-05T03:25:44.705Z,8.64
2024-03-05T03:28:15.713Z,8.62
2024-03-05T03:30:46.556Z,8.59
2024-03-05T03:33:20.159Z,8.57
2024-03-05T03:35:50.686Z,8.57
2024-03-05T03:38:25.165Z,8.57
2024-03-05T03:40:56.300Z,8.56
2024-03-05T03:43:27.250Z,8.56
2024-03-05T03:45:58.208Z,8.56
2024-03-05T03:48:28.808Z,8.56
2024-03-05T03:50:59.794Z,8.57
2024-03-05T03:53:32.999Z,8.58
2024-03-05T03:56:03.752Z,8.57
2024-03-05T03:58:34.980Z,8.57
2024-03-05T04:01:05.814Z,8.57
2024-03-05T04:03:36.415Z,8.56
2024-03-05T04:06:07.214Z,8.56
2024-03-05T04:08:40.407Z,8.55
2024-03-05T04:11:11.410Z,8.55
2024-03-05T04:13:45.199Z,8.55
2024-03-05T04:16:16.534Z,8.53
2024-03-05T04:18:47.325Z,8.50
2024-03-05T04:21:18.496Z,8.50
2024-03-05T04:23:52.000Z,8.46
2024-03-05T04:26:25.150Z,8.44
2024-03-05T04:28:56.485Z,8.41
2024-03-05T04:31:37.616Z,8.37
2024-03-05T04:34:14.618Z,8.33
2024-03-05T04:36:46.026Z,8.28
2024-03-05T04:39:19.860Z,8.24
2024-03-05T04:41:50.551Z,8.20
2024-03-05T04:44:21.165Z,8.16
2024-03-05T04:46:51.932Z,8.11
2024-03-05T04:49:22.600Z,8.07
2024-03-05T04:51:53.274Z,8.03
2024-03-05T04:54:26.508Z,7.97
2024-03-05T04:56:57.035Z,7.93
2024-03-05T04:59:27.987Z,7.89
2024-03-05T05:01:58.573Z,7.85
2024-03-05T05:04:29.271Z,7.83
2024-03-05T05:07:00.078Z,7.81
2024-03-05T05:09:33.332Z,7.79
2024-03-05T05:12:04.267Z,7.78
2024-03-05T05:14:38.661Z,7.77
2024-03-05T05:17:09.769Z,7.76
2024-03-05T05:19:42.472Z,7.75
2024-03-05T05:22:13.083Z,7.72
2024-03-05T05:24:46.415Z,7.71
2024-03-05T05:27:17.120Z,7.71
2024-03-05T05:29:48.827Z,7.73
2024-03-05T05:32:22.361Z,7.72
2024-03-05T05:34:52.977Z,7.75
2024-03-05T05:37:23.646Z,7.76
2024-03-05T05:39:56.910Z,7.78
2024-03-05T05:42:27.697Z,7.81
2024-03-05T05:44:58.395Z,7.86
2024-03-05T05:47:29.139Z,7.91
2024-03-05T05:50:00.649Z,8.01
2024-03-05T05:52:31.393Z,8.11
2024-03-05T05:55:07.475Z,8.19
2024-03-05T05:57:38.020Z,8.31
2024-03-05T06:00:13.793Z,8.41
2024-03-05T06:02:44.847Z,8.51
2024-03-05T06:05:15.516Z,8.62
2024-03-05T06:07:46.148Z,8.71
2024-03-05T06:10:23.662Z,8.80
2024-03-05T06:12:54.899Z,8.94
2024-03-05T06:15:29.351Z,9.02
2024-03-05T06:18:01.609Z,9.05
2024-03-05T06:20:33.017Z,9.02
2024-03-05T06:23:04.013Z,9.02
2024-03-05T06:25:37.555Z,9.01
2024-03-05T06:28:11.964Z,9.04
2024-03-05T06:30:47.181Z,9.11
2024-03-05T06:33:19.497Z,9.22
2024-03-05T06:35:50.121Z,9.40
2024-03-05T06:38:20.842Z,9.60
2024-03-05T06:40:54.103Z,9.82
2024-03-05T06:43:33.275Z,10.05
2024-03-05T06:46:04.479Z,10.34
2024-03-05T06:48:35.362Z,10.65
2024-03-05T06:51:17.734Z,10.97
2024-03-05T06:54:00.775Z,11.36
2024-03-05T06:56:45.905Z,11.79
2024-03-05T06:59:16.580Z,12.23
2024-03-05T07:01:47.235Z,12.59
2024-03-05T07:04:17.947Z,13.01
2024-03-05T07:06:48.556Z,13.39
2024-03-05T07:09:21.176Z,13.78
2024-03-05T07:11:55.454Z,14.07
2024-03-05T07:14:26.411Z,14.34
2024-03-05T07:16:56.998Z,14.59
2024-03-05T07:19:28.474Z,14.78
2024-03-05T07:21:59.048Z,14.99
2024-03-05T07:24:30.019Z,15.14
2024-03-05T07:27:08.710Z,15.32
2024-03-05T07:29:40.191Z,15.52
2024-03-05T07:32:11.861Z,15.76
2024-03-05T07:34:42.632Z,15.99
2024-03-05T07:37:13.324Z,16.24
2024-03-05T07:39:43.901Z,16.46
2024-03-05T07:42:18.017Z,16.78
2024-03-05T07:44:48.681Z,17.09
2024-03-05T07:47:19.353Z,17.39
2024-03-05T07:49:50.053Z,17.70
2024-03-05T07:52:20.760Z,18.02
2024-03-05T07:54:51.440Z,18.20
2024-03-05T07:57:24.711Z,18.20
2024-03-05T07:59:55.268Z,18.14
2024-03-05T08:02:26.790Z,18.18
2024-03-05T08:04:57.435Z,18.16
2024-03-05T08:07:28.170Z,18.20
2024-03-05T08:09:58.890Z,18.21
2024-03-05T08:12:32.615Z,18.14
2024-03-05T08:15:04.629Z,18.06
2024-03-05T08:17:37.176Z,18.11
2024-03-05T08:20:08.745Z,18.18
2024-03-05T08:22:39.847Z,18.25
2024-03-05T08:25:14.373Z,18.38
2024-03-05T08:27:48.741Z,18.57
2024-03-05T08:30:21.446Z,18.59
2024-03-05T08:32:54.081Z,18.57
2024-03-05T08:35:25.363Z,18.55
2024-03-05T08:37:56.833Z,18.45
2024-03-05T08:40:28.129Z,18.43
2024-03-05T08:43:05.266Z,18.35
2024-03-05T08:45:37.848Z,18.15
2024-03-05T08:48:09.115Z,17.90
2024-03-05T08:50:41.173Z,17.61
2024-03-05T08:53:11.944Z,17.31
2024-03-05T08:55:42.734Z,17.13
2024-03-05T08:58:16.067Z,17.00
2024-03-05T09:00:46.706Z,16.90
2024-03-05T09:03:17.258Z,16.85
2024-03-05T09:05:48.633Z,16.83
2024-03-05T09:08:19.548Z,16.89
2024-03-05T09:10:50.243Z,16.98
2024-03-05T09:13:23.571Z,17.07
2024-03-05T09:15:55.015Z,17.08
2024-03-05T09:18:25.641Z,17.08
2024-03-05T09:20:56.288Z,17.12
2024-03-05T09:23:26.854Z,17.11
2024-03-05T09:25:57.616Z,17.15
2024-03-05T09:28:33.606Z,17.15
2024-03-05T09:31:04.302Z,17.18
2024-03-05T09:33:35.134Z,17.18
2024-03-05T09:36:08.126Z,17.18
2024-03-05T09:38:38.721Z,17.06
2024-03-05T09:41:10.339Z,16.93
2024-03-05T09:43:46.851Z,16.78
2024-03-05T09:46:19.555Z,16.68
2024-03-05T09:48:50.625Z,16.60
2024-03-05T09:51:26.884Z,16.57
2024-03-05T09:53:58.335Z,16.59
2024-03-05T09:56:29.156Z,16.59
2024-03-05T09:59:08.579Z,16.55
2024-03-05T10:01:40.769Z,16.47
2024-03-05T10:04:17.459Z,16.38
2024-03-05T10:06:49.876Z,16.29
2024-03-05T10:09:23.107Z,16.21
2024-03-05T10:11:55.676Z,16.08
2024-03-05T10:14:32.814Z,15.94
2024-03-05T10:17:04.934Z,15.80
2024-03-05T10:19:46.112Z,15.66
2024-03-05T10:22:16.749Z,15.52
2024-03-05T10:24:47.301Z,15.42
2024-03-05T10:27:30.888Z,15.36
2024-03-05T10:30:05.747Z,15.29
2024-03-05T10:32:36.407Z,15.21
2024-03-05T10:35:07.895Z,15.11
2024-03-05T10:37:38.573Z,15.01
2024-03-05T10:40:11.881Z,14.94
2024-03-05T10:42:44.381Z,14.94
2024-03-05T10:48:41.031Z,14.83
2024-03-05T10:51:14.482Z,14.70
2024-03-05T10:53:45.592Z,14.58
2024-03-05T10:56:16.384Z,14.47
2024-03-05T10:59:15.545Z,14.36
2024-03-05T11:01:48.173Z,14.24
2024-03-05T11:04:25.189Z,14.16
2024-03-05T11:06:59.383Z,14.06
2024-03-05T11:09:30.693Z,13.98
2024-03-05T11:12:08.016Z,13.89
2024-03-05T11:14:40.514Z,13.81
2024-03-05T11:17:13.978Z,13.77
2024-03-05T11:19:49.830Z,13.72
2024-03-05T11:22:26.391Z,13.65
2024-03-05T11:25:01.043Z,13.61
2024-03-05T11:27:35.366Z,13.58
2024-03-05T11:30:11.111Z,13.55
2024-03-05T11:32:42.616Z,13.49
2024-03-05T11:35:17.339Z,13.42
2024-03-05T11:37:55.144Z,13.36
2024-03-05T11:40:35.981Z,13.30
2024-03-05T11:43:06.772Z,13.26
2024-03-05T11:45:47.580Z,13.24
2024-03-05T11:48:20.059Z,13.21
2024-03-05T11:50:57.914Z,13.23
2024-03-05T11:53:28.538Z,13.27
2024-03-05T11:56:09.949Z,13.32
2024-03-05T11:58:42.382Z,13.37
2024-03-05T12:01:13.288Z,13.40
2024-03-05T12:03:43.910Z,13.42
2024-03-05T12:06:19.190Z,13.45
2024-03-05T12:08:51.614Z,13.45
2024-03-05T12:11:22.250Z,13.45
2024-03-05T12:13:52.947Z,13.42
2024-03-05T12:16:24.705Z,13.39
2024-03-05T12:19:02.930Z,13.34
2024-03-05T12:21:38.022Z,13.28
2024-03-05T12:24:10.747Z,13.26
2024-03-05T12:26:41.466Z,13.23
2024-03-05T12:29:12.251Z,13.18
2024-03-05T12:31:42.983Z,13.13
2024-03-05T12:34:14.529Z,13.09
2024-03-05T12:36:48.332Z,13.04
2024-03-05T12:39:21.729Z,13.00
2024-03-05T12:42:06.941Z,12.93
2024-03-05T12:44:38.626Z,12.87
2024-03-05T12:47:14.741Z,12.80
2024-03-05T12:49:48.489Z,12.74
2024-03-05T12:52:25.662Z,12.65
2024-03-05T12:55:01.439Z,12.57
2024-03-05T12:57:34.398Z,12.45
2024-03-05T13:00:07.338Z,12.36
2024-03-05T13:02:38.112Z,12.27
2024-03-05T13:05:09.945Z,12.18
2024-03-05T13:07:43.374Z,12.07
2024-03-05T13:10:14.117Z,11.93
2024-03-05T13:12:45.195Z,11.82
2024-03-05T13:15:15.907Z,11.73
2024-03-05T13:17:46.651Z,11.64
2024-03-05T13:20:22.684Z,11.57
2024-03-05T13:22:58.040Z,11.49
2024-03-05T13:25:30.316Z,11.42
2024-03-05T13:28:01.977Z,11.36
2024-03-05T13:30:33.118Z,11.28
2024-03-05T13:33:06.437Z,11.21
2024-03-05T13:35:37.138Z,11.14
2024-03-05T13:38:11.849Z,11.06
2024-03-05T13:40:42.708Z,10.95
2024-03-05T13:43:13.516Z,10.81
2024-03-05T13:45:44.155Z,10.66
2024-03-05T13:48:14.872Z,10.55
2024-03-05T13:50:53.709Z,10.50
2024-03-05T13:53:28.226Z,10.40
2024-03-05T13:55:59.174Z,10.30
2024-03-05T13:58:29.882Z,10.23
2024-03-05T14:01:01.790Z,10.17
2024-03-05T14:03:35.233Z,10.11
2024-03-05T14:06:05.867Z,10.05
2024-03-05T14:08:39.354Z,9.97
2024-03-05T14:11:09.947Z,9.92
2024-03-05T14:13:40.638Z,9.85
2024-03-05T14:16:14.542Z,9.80
2024-03-05T14:18:45.308Z,9.75
2024-03-05T14:21:15.953Z,9.69
2024-03-05T14:23:49.167Z,9.66
2024-03-05T14:26:19.706Z,9.60
2024-03-05T14:28:50.247Z,9.53
2024-03-05T14:31:20.794Z,9.46
2024-03-05T14:33:52.539Z,9.42
2024-03-05T14:36:23.319Z,9.40
2024-03-05T14:38:56.584Z,9.37
2024-03-05T14:41:27.120Z,9.36
2024-03-05T14:43:57.738Z,9.33
2024-03-05T14:46:29.228Z,9.27
2024-03-05T14:48:59.802Z,9.19
2024-03-05T14:51:30.550Z,9.11
2024-03-05T14:54:03.742Z,9.01
2024-03-05T14:56:35.735Z,8.91
2024-03-05T14:59:06.454Z,8.82
2024-03-05T15:01:38.795Z,8.74
2024-03-05T15:04:09.393Z,8.66
2024-03-05T15:06:40.468Z,8.62
2024-03-05T15:09:13.694Z,8.59
2024-03-05T15:11:46.638Z,8.55
2024-03-05T15:14:17.360Z,8.55
2024-03-05T15:16:47.971Z,8.51
2024-03-05T15:19:19.148Z,8.49
2024-03-05T15:21:49.793Z,8.51
2024-03-05T15:24:24.509Z,8.53
2024-03-05T15:27:01.768Z,8.54
2024-03-05T15:29:37.726Z,8.56
2024-03-05T15:32:09.315Z,8.57
2024-03-05T15:34:39.968Z,8.59
2024-03-05T15:37:10.600Z,8.60
2024-03-05T15:39:43.791Z,8.62
2024-03-05T15:42:15.346Z,8.62
2024-03-05T15:44:45.958Z,8.63
2024-03-05T15:47:16.619Z,8.64
2024-03-05T15:49:47.218Z,8.64
2024-03-05T15:52:18.700Z,8.64
2024-03-05T15:54:51.887Z,8.62
2024-03-05T15:57:26.298Z,8.63
2024-03-05T16:00:08.649Z,8.59
2024-03-05T16:02:45.746Z,8.53
2024-03-05T16:05:25.083Z,8.46
2024-03-05T16:08:02.107Z,8.41
2024-03-05T16:10:41.449Z,8.33
2024-03-05T16:13:18.822Z,8.29
2024-03-05T16:15:49.876Z,8.24
2024-03-05T16:18:23.287Z,8.20
2024-03-05T16:20:54.428Z,8.17
2024-03-05T16:23:26.919Z,8.15
2024-03-05T16:26:00.180Z,8.17
2024-03-05T16:28:31.006Z,8.18
2024-03-05T16:31:01.871Z,8.18
2024-03-05T16:33:32.609Z,8.20
2024-03-05T16:36:04.481Z,8.22
2024-03-05T16:38:35.565Z,8.20
2024-03-05T16:41:09.090Z,8.20
2024-03-05T16:43:39.888Z,8.20
2024-03-05T16:46:10.557Z,8.20
2024-03-05T16:48:41.276Z,8.20
2024-03-05T16:51:11.948Z,8.15
2024-03-05T16:53:42.514Z,8.10
2024-03-05T16:56:16.306Z,8.02
2024-03-05T16:58:47.018Z,7.95
2024-03-05T17:01:18.693Z,7.89
2024-03-05T17:03:51.912Z,7.85
2024-03-05T17:06:23.772Z,7.84
2024-03-05T17:08:54.337Z,7.84
2024-03-05T17:11:27.780Z,7.83
2024-03-05T17:13:58.502Z,7.82
2024-03-05T17:16:29.608Z,7.79
2024-03-05T17:19:00.268Z,7.74
2024-03-05T17:21:31.396Z,7.68
2024-03-05T17:24:03.015Z,7.62
2024-03-05T17:26:36.290Z,7.53
2024-03-05T17:29:12.362Z,7.12
2024-03-05T17:31:43.169Z,6.55
2024-03-05T17:34:13.883Z,6.07
2024-03-05T17:36:44.719Z,5.66
2024-03-05T17:39:15.712Z,5.40
2024-03-05T17:41:49.988Z,5.42
2024-03-05T17:44:20.705Z,5.42
2024-03-05T17:46:52.042Z,5.41
2024-03-05T17:49:23.461Z,5.39
2024-03-05T17:51:54.590Z,5.47
2024-03-05T17:54:25.931Z,5.50
2024-03-05T17:56:59.943Z,5.42
2024-03-05T17:59:30.633Z,5.35
2024-03-05T18:02:01.922Z,5.28
2024-03-05T18:04:33.721Z,5.36
2024-03-05T18:07:06.534Z,5.45
2024-03-05T18:09:37.971Z,5.40
2024-03-05T18:12:16.012Z,5.31
2024-03-05T18:14:47.452Z,5.23
2024-03-05T18:17:18.212Z,5.21
2024-03-05T18:19:49.334Z,5.30
2024-03-05T18:22:20.247Z,5.30
2024-03-05T18:24:51.210Z,5.21
2024-03-05T18:27:24.668Z,5.12
2024-03-05T18:29:57.353Z,5.13
2024-03-05T18:32:28.272Z,5.25
2024-03-05T18:34:58.948Z,5.26
2024-03-05T18:37:29.602Z,5.20
2024-03-05T18:40:00.255Z,5.15
2024-03-05T18:42:33.506Z,5.24
2024-03-05T18:45:06.960Z,5.31
2024-03-05T18:47:39.841Z,5.26
2024-03-05T18:50:14.596Z,5.15
2024-03-05T18:52:45.873Z,5.15
2024-03-05T18:55:17.427Z,5.24
2024-03-05T18:57:51.343Z,5.24
2024-03-05T19:00:22.210Z,5.15
2024-03-05T19:02:53.296Z,5.04
2024-03-05T19:05:23.962Z,5.00
2024-03-05T19:07:55.191Z,5.14
2024-03-05T19:10:26.184Z,5.16
2024-03-05T19:13:00.168Z,5.10
2024-03-05T19:15:31.034Z,5.18
2024-03-05T19:18:01.843Z,5.22
2024-03-05T19:20:32.620Z,5.17
2024-03-05T19:23:03.363Z,5.04
2024-03-05T19:25:33.999Z,4.95
2024-03-05T19:28:07.673Z,4.95
2024-03-05T19:30:38.239Z,5.05
2024-03-05T19:33:09.594Z,5.01
2024-03-05T19:35:40.548Z,5.00
2024-03-05T19:38:11.259Z,5.09
2024-03-05T19:40:42.019Z,5.10
2024-03-05T19:43:15.246Z,5.05
2024-03-05T19:45:46.679Z,4.97
2024-03-05T19:48:18.745Z,4.87
2024-03-05T19:50:49.546Z,4.88
2024-03-05T19:53:20.406Z,4.97
2024-03-05T19:55:51.390Z,4.93
2024-03-05T19:58:24.669Z,4.82
2024-03-05T20:00:55.410Z,4.80
2024-03-05T20:03:26.086Z,4.91
2024-03-05T20:05:57.170Z,4.93
2024-03-05T20:08:29.995Z,4.86
2024-03-05T20:11:00.748Z,4.75
2024-03-05T20:13:35.018Z,4.82
2024-03-05T20:16:05.636Z,4.92
2024-03-05T20:18:36.384Z,4.91
2024-03-05T20:21:10.081Z,4.82
2024-03-05T20:23:43.038Z,4.77
2024-03-05T20:26:15.119Z,4.72
2024-03-05T20:28:49.985Z,4.83
2024-03-05T20:31:23.110Z,4.81
2024-03-05T20:33:53.750Z,4.72
2024-03-05T20:36:24.848Z,4.63
2024-03-05T20:38:56.931Z,4.61
2024-03-05T20:41:27.609Z,4.74
2024-03-05T20:44:01.357Z,4.76
2024-03-05T20:46:34.010Z,4.68
2024-03-05T20:49:05.326Z,4.71
2024-03-05T20:51:36.019Z,4.82
2024-03-05T20:54:06.932Z,4.86
2024-03-05T20:56:37.470Z,4.77
2024-03-05T20:59:10.863Z,4.68
2024-03-05T21:01:45.859Z,4.61
2024-03-05T21:04:16.710Z,4.74
2024-03-05T21:06:47.307Z,4.82
2024-03-05T21:09:17.997Z,4.75
2024-03-05T21:11:49.443Z,4.66
2024-03-05T21:14:22.747Z,4.70
2024-03-05T21:16:53.426Z,4.81
2024-03-05T21:19:27.793Z,4.80
2024-03-05T21:21:58.630Z,4.72
2024-03-05T21:24:30.602Z,4.63
2024-03-05T21:27:16.195Z,4.74
2024-03-05T21:29:54.187Z,4.84
2024-03-05T21:32:24.928Z,4.75
2024-03-05T21:34:55.715Z,4.67
2024-03-05T21:37:26.379Z,4.76
2024-03-05T21:39:57.236Z,4.87
2024-03-05T21:42:28.137Z,4.83
2024-03-05T21:44:58.861Z,4.76
2024-03-05T21:47:29.566Z,4.79
2024-03-05T21:50:01.507Z,4.91
2024-03-05T21:52:35.140Z,4.90
2024-03-05T21:55:06.433Z,4.80
2024-03-05T21:57:40.308Z,4.71
2024-03-05T22:00:15.960Z,4.72
2024-03-05T22:02:46.755Z,4.83
2024-03-05T22:05:17.540Z,4.82
2024-03-05T22:07:48.308Z,4.70
2024-03-05T22:10:18.912Z,4.61
2024-03-05T22:12:49.559Z,4.68
2024-03-05T22:15:22.716Z,4.78
2024-03-05T22:17:54.071Z,4.73
2024-03-05T22:20:25.331Z,4.64
2024-03-05T22:22:55.992Z,4.68
2024-03-05T22:25:26.633Z,4.79
2024-03-05T22:27:57.345Z,4.78
2024-03-05T22:30:30.670Z,4.71
2024-03-05T22:33:02.014Z,4.71
2024-03-05T22:35:32.645Z,4.80
2024-03-05T22:38:03.336Z,4.80
2024-03-05T22:40:33.990Z,4.73
2024-03-05T22:43:05.563Z,4.62
2024-03-05T22:45:39.807Z,4.69
2024-03-05T22:48:11.156Z,4.80
2024-03-05T22:50:43.145Z,4.76
2024-03-05T22:53:14.841Z,4.67
2024-03-05T22:55:45.463Z,4.57
2024-03-05T22:58:16.220Z,4.68
2024-03-05T23:00:51.902Z,4.77
2024-03-05T23:03:22.956Z,4.87
2024-03-05T23:05:53.567Z,4.94
2024-03-05T23:08:24.275Z,4.92
2024-03-05T23:10:56.002Z,4.82
2024-03-05T23:13:26.728Z,4.69
2024-03-05T23:16:00.265Z,4.77
2024-03-05T23:18:30.885Z,4.84
2024-03-05T23:21:01.581Z,4.78
2024-03-05T23:23:32.331Z,4.71
2024-03-05T23:26:04.162Z,4.61
2024-03-05T23:28:34.893Z,4.57
2024-03-05T23:31:08.364Z,4.71
2024-03-05T23:33:39.254Z,4.79
2024-03-05T23:36:10.267Z,4.87
2024-03-05T23:38:41.199Z,4.95
2024-03-05T23:41:24.597Z,5.04
2024-03-05T23:44:02.196Z,5.14
2024-03-05T23:46:36.595Z,5.22
2024-03-05T23:49:07.219Z,5.31
2024-03-05T23:51:37.842Z,5.39
2024-03-05T23:54:08.579Z,5.45
2024-03-05T23:56:39.446Z,5.50
2024-03-05T23:59:10.153Z,5.57
